sensor_id;sensor_type;location;lat;lon;timestamp;P1;durP1;ratioP1;P2;durP2;ratioP2
55993;SDS011;67425;52.126;20.638;2023-07-29T00:01:40;8.20;;;5.05;;
55993;SDS011;67425;52.126;20.638;2023-07-29T00:04:06;7.53;;;5.57;;
55993;SDS011;67425;52.126;20.638;2023-07-29T00:06:31;14.65;;;5.45;;
55993;SDS011;67425;52.126;20.638;2023-07-29T00:08:57;8.65;;;5.20;;
55993;SDS011;67425;52.126;20.638;2023-07-29T00:11:22;8.05;;;4.60;;
55993;SDS011;67425;52.126;20.638;2023-07-29T00:13:47;6.35;;;5.00;;
55993;SDS011;67425;52.126;20.638;2023-07-29T00:16:15;7.25;;;5.82;;
55993;SDS011;67425;52.126;20.638;2023-07-29T00:18:42;8.18;;;5.47;;
55993;SDS011;67425;52.126;20.638;2023-07-29T00:21:07;10.82;;;5.55;;
55993;SDS011;67425;52.126;20.638;2023-07-29T00:23:33;5.50;;;5.00;;
55993;SDS011;67425;52.126;20.638;2023-07-29T00:25:58;5.50;;;5.00;;
55993;SDS011;67425;52.126;20.638;2023-07-29T00:28:23;12.80;;;6.80;;
55993;SDS011;67425;52.126;20.638;2023-07-29T00:30:49;16.92;;;6.85;;
55993;SDS011;67425;52.126;20.638;2023-07-29T00:33:14;9.98;;;7.85;;
55993;SDS011;67425;52.126;20.638;2023-07-29T00:35:39;12.55;;;6.68;;
55993;SDS011;67425;52.126;20.638;2023-07-29T00:38:05;6.00;;;5.43;;
55993;SDS011;67425;52.126;20.638;2023-07-29T00:40:30;10.77;;;5.80;;
55993;SDS011;67425;52.126;20.638;2023-07-29T00:42:58;13.40;;;5.57;;
55993;SDS011;67425;52.126;20.638;2023-07-29T00:45:23;6.95;;;5.63;;
55993;SDS011;67425;52.126;20.638;2023-07-29T00:47:51;9.63;;;6.13;;
55993;SDS011;67425;52.126;20.638;2023-07-29T00:50:16;6.55;;;5.70;;
55993;SDS011;67425;52.126;20.638;2023-07-29T00:52:42;14.65;;;6.93;;
55993;SDS011;67425;52.126;20.638;2023-07-29T00:55:07;10.90;;;6.32;;
55993;SDS011;67425;52.126;20.638;2023-07-29T00:57:33;7.75;;;6.80;;
55993;SDS011;67425;52.126;20.638;2023-07-29T01:00:00;6.78;;;6.03;;
55993;SDS011;67425;52.126;20.638;2023-07-29T01:02:26;13.13;;;6.47;;
55993;SDS011;67425;52.126;20.638;2023-07-29T01:04:53;12.07;;;7.45;;
55993;SDS011;67425;52.126;20.638;2023-07-29T01:10:10;9.27;;;6.18;;
55993;SDS011;67425;52.126;20.638;2023-07-29T01:15:16;8.00;;;6.38;;
55993;SDS011;67425;52.126;20.638;2023-07-29T01:17:59;9.65;;;6.35;;
55993;SDS011;67425;52.126;20.638;2023-07-29T01:20:29;7.03;;;5.95;;
55993;SDS011;67425;52.126;20.638;2023-07-29T01:23:01;7.05;;;6.40;;
55993;SDS011;67425;52.126;20.638;2023-07-29T01:25:26;13.27;;;7.65;;
55993;SDS011;67425;52.126;20.638;2023-07-29T01:27:52;16.98;;;7.40;;
55993;SDS011;67425;52.126;20.638;2023-07-29T01:30:20;8.77;;;6.28;;
55993;SDS011;67425;52.126;20.638;2023-07-29T01:32:59;6.82;;;6.13;;
55993;SDS011;67425;52.126;20.638;2023-07-29T01:38:40;15.05;;;8.05;;
55993;SDS011;67425;52.126;20.638;2023-07-29T01:41:07;6.47;;;5.85;;
55993;SDS011;67425;52.126;20.638;2023-07-29T01:43:33;7.05;;;6.38;;
55993;SDS011;67425;52.126;20.638;2023-07-29T01:46:04;9.15;;;6.25;;
55993;SDS011;67425;52.126;20.638;2023-07-29T01:48:29;19.23;;;8.77;;
55993;SDS011;67425;52.126;20.638;2023-07-29T01:50:56;15.25;;;6.40;;
55993;SDS011;67425;52.126;20.638;2023-07-29T01:53:22;14.38;;;8.25;;
55993;SDS011;67425;52.126;20.638;2023-07-29T01:55:47;33.53;;;6.97;;
55993;SDS011;67425;52.126;20.638;2023-07-29T01:58:12;17.73;;;8.35;;
55993;SDS011;67425;52.126;20.638;2023-07-29T02:00:39;6.82;;;6.20;;
55993;SDS011;67425;52.126;20.638;2023-07-29T02:03:04;7.43;;;5.63;;
55993;SDS011;67425;52.126;20.638;2023-07-29T02:05:30;8.23;;;5.78;;
55993;SDS011;67425;52.126;20.638;2023-07-29T02:07:55;6.15;;;5.65;;
55993;SDS011;67425;52.126;20.638;2023-07-29T02:10:20;9.27;;;5.78;;
55993;SDS011;67425;52.126;20.638;2023-07-29T02:12:46;6.70;;;5.95;;
55993;SDS011;67425;52.126;20.638;2023-07-29T02:15:11;8.27;;;6.38;;
55993;SDS011;67425;52.126;20.638;2023-07-29T02:17:36;13.75;;;6.00;;
55993;SDS011;67425;52.126;20.638;2023-07-29T02:20:02;10.15;;;6.97;;
55993;SDS011;67425;52.126;20.638;2023-07-29T02:22:28;10.70;;;8.10;;
55993;SDS011;67425;52.126;20.638;2023-07-29T02:24:54;11.95;;;6.32;;
55993;SDS011;67425;52.126;20.638;2023-07-29T02:27:19;9.82;;;7.57;;
55993;SDS011;67425;52.126;20.638;2023-07-29T02:29:44;122.70;;;10.57;;
55993;SDS011;67425;52.126;20.638;2023-07-29T02:32:10;36.55;;;12.02;;
55993;SDS011;67425;52.126;20.638;2023-07-29T02:34:35;65.22;;;34.22;;
55993;SDS011;67425;52.126;20.638;2023-07-29T02:37:00;128.48;;;20.83;;
55993;SDS011;67425;52.126;20.638;2023-07-29T02:39:26;52.35;;;13.93;;
55993;SDS011;67425;52.126;20.638;2023-07-29T02:41:51;56.88;;;11.35;;
55993;SDS011;67425;52.126;20.638;2023-07-29T02:44:16;65.80;;;10.95;;
55993;SDS011;67425;52.126;20.638;2023-07-29T02:46:42;53.03;;;9.65;;
55993;SDS011;67425;52.126;20.638;2023-07-29T02:49:07;116.53;;;9.80;;
55993;SDS011;67425;52.126;20.638;2023-07-29T02:51:33;134.65;;;10.77;;
55993;SDS011;67425;52.126;20.638;2023-07-29T02:53:58;78.15;;;11.15;;
55993;SDS011;67425;52.126;20.638;2023-07-29T02:56:23;46.55;;;10.65;;
55993;SDS011;67425;52.126;20.638;2023-07-29T02:58:49;66.82;;;10.05;;
55993;SDS011;67425;52.126;20.638;2023-07-29T03:01:16;67.95;;;11.95;;
55993;SDS011;67425;52.126;20.638;2023-07-29T03:03:42;57.47;;;9.40;;
55993;SDS011;67425;52.126;20.638;2023-07-29T03:06:08;23.17;;;8.20;;
55993;SDS011;67425;52.126;20.638;2023-07-29T03:08:34;69.43;;;8.77;;
55993;SDS011;67425;52.126;20.638;2023-07-29T03:11:04;40.22;;;7.78;;
55993;SDS011;67425;52.126;20.638;2023-07-29T03:13:32;56.47;;;8.57;;
55993;SDS011;67425;52.126;20.638;2023-07-29T03:16:07;73.93;;;8.50;;
55993;SDS011;67425;52.126;20.638;2023-07-29T03:18:37;39.15;;;8.18;;
55993;SDS011;67425;52.126;20.638;2023-07-29T03:21:03;38.75;;;7.50;;
55993;SDS011;67425;52.126;20.638;2023-07-29T03:23:29;43.83;;;6.57;;
55993;SDS011;67425;52.126;20.638;2023-07-29T03:25:55;35.58;;;7.88;;
55993;SDS011;67425;52.126;20.638;2023-07-29T03:28:27;65.43;;;8.88;;
55993;SDS011;67425;52.126;20.638;2023-07-29T03:30:57;30.02;;;6.65;;
55993;SDS011;67425;52.126;20.638;2023-07-29T03:33:23;55.55;;;9.52;;
55993;SDS011;67425;52.126;20.638;2023-07-29T03:35:50;31.52;;;7.10;;
55993;SDS011;67425;52.126;20.638;2023-07-29T03:38:15;77.35;;;7.53;;
55993;SDS011;67425;52.126;20.638;2023-07-29T03:40:41;45.08;;;7.68;;
55993;SDS011;67425;52.126;20.638;2023-07-29T03:43:07;35.97;;;7.28;;
55993;SDS011;67425;52.126;20.638;2023-07-29T03:45:33;27.42;;;6.85;;
55993;SDS011;67425;52.126;20.638;2023-07-29T03:47:59;25.60;;;7.43;;
55993;SDS011;67425;52.126;20.638;2023-07-29T03:50:24;55.15;;;9.25;;
55993;SDS011;67425;52.126;20.638;2023-07-29T03:52:50;35.65;;;8.00;;
55993;SDS011;67425;52.126;20.638;2023-07-29T03:55:16;20.20;;;9.18;;
55993;SDS011;67425;52.126;20.638;2023-07-29T03:57:41;48.55;;;10.95;;
55993;SDS011;67425;52.126;20.638;2023-07-29T04:00:06;78.85;;;10.40;;
55993;SDS011;67425;52.126;20.638;2023-07-29T04:02:32;58.53;;;11.02;;
55993;SDS011;67425;52.126;20.638;2023-07-29T04:04:57;85.20;;;11.45;;
55993;SDS011;67425;52.126;20.638;2023-07-29T04:07:23;51.53;;;10.85;;
55993;SDS011;67425;52.126;20.638;2023-07-29T04:09:48;64.35;;;11.23;;
55993;SDS011;67425;52.126;20.638;2023-07-29T04:12:14;42.00;;;11.57;;
55993;SDS011;67425;52.126;20.638;2023-07-29T04:14:40;42.05;;;12.45;;
55993;SDS011;67425;52.126;20.638;2023-07-29T04:17:05;35.38;;;12.00;;
55993;SDS011;67425;52.126;20.638;2023-07-29T04:19:30;23.95;;;12.82;;
55993;SDS011;67425;52.126;20.638;2023-07-29T04:21:56;30.35;;;12.40;;
55993;SDS011;67425;52.126;20.638;2023-07-29T04:24:21;24.30;;;13.77;;
55993;SDS011;67425;52.126;20.638;2023-07-29T04:26:48;29.88;;;12.52;;
55993;SDS011;67425;52.126;20.638;2023-07-29T04:29:13;23.15;;;12.82;;
55993;SDS011;67425;52.126;20.638;2023-07-29T04:31:39;30.42;;;12.88;;
55993;SDS011;67425;52.126;20.638;2023-07-29T04:34:04;23.40;;;12.63;;
55993;SDS011;67425;52.126;20.638;2023-07-29T04:36:30;25.05;;;14.18;;
55993;SDS011;67425;52.126;20.638;2023-07-29T04:38:55;24.25;;;12.88;;
55993;SDS011;67425;52.126;20.638;2023-07-29T04:41:20;22.45;;;13.82;;
55993;SDS011;67425;52.126;20.638;2023-07-29T04:43:46;26.60;;;13.98;;
55993;SDS011;67425;52.126;20.638;2023-07-29T04:46:11;23.88;;;14.90;;
55993;SDS011;67425;52.126;20.638;2023-07-29T04:48:37;24.08;;;14.52;;
55993;SDS011;67425;52.126;20.638;2023-07-29T04:51:02;23.80;;;15.07;;
55993;SDS011;67425;52.126;20.638;2023-07-29T04:53:27;27.05;;;13.52;;
55993;SDS011;67425;52.126;20.638;2023-07-29T04:55:53;21.05;;;13.65;;
55993;SDS011;67425;52.126;20.638;2023-07-29T04:58:18;20.05;;;12.65;;
55993;SDS011;67425;52.126;20.638;2023-07-29T05:00:43;20.13;;;12.48;;
55993;SDS011;67425;52.126;20.638;2023-07-29T05:03:09;16.65;;;12.27;;
55993;SDS011;67425;52.126;20.638;2023-07-29T05:05:34;16.67;;;11.45;;
55993;SDS011;67425;52.126;20.638;2023-07-29T05:07:59;18.17;;;11.80;;
55993;SDS011;67425;52.126;20.638;2023-07-29T05:10:25;17.20;;;12.43;;
55993;SDS011;67425;52.126;20.638;2023-07-29T05:12:50;18.08;;;12.20;;
55993;SDS011;67425;52.126;20.638;2023-07-29T05:15:15;19.52;;;12.75;;
55993;SDS011;67425;52.126;20.638;2023-07-29T05:17:41;16.90;;;11.15;;
55993;SDS011;67425;52.126;20.638;2023-07-29T05:20:06;20.88;;;12.68;;
55993;SDS011;67425;52.126;20.638;2023-07-29T05:22:32;15.68;;;11.95;;
55993;SDS011;67425;52.126;20.638;2023-07-29T05:24:58;18.00;;;12.75;;
55993;SDS011;67425;52.126;20.638;2023-07-29T05:27:23;14.18;;;11.60;;
55993;SDS011;67425;52.126;20.638;2023-07-29T05:29:48;17.40;;;12.55;;
55993;SDS011;67425;52.126;20.638;2023-07-29T05:32:14;22.05;;;12.05;;
55993;SDS011;67425;52.126;20.638;2023-07-29T05:34:39;20.38;;;12.88;;
55993;SDS011;67425;52.126;20.638;2023-07-29T05:37:04;16.50;;;12.50;;
55993;SDS011;67425;52.126;20.638;2023-07-29T05:39:30;25.20;;;12.55;;
55993;SDS011;67425;52.126;20.638;2023-07-29T05:41:57;22.70;;;12.95;;
55993;SDS011;67425;52.126;20.638;2023-07-29T05:44:22;17.77;;;12.45;;
55993;SDS011;67425;52.126;20.638;2023-07-29T05:46:48;15.98;;;11.43;;
55993;SDS011;67425;52.126;20.638;2023-07-29T05:49:13;19.45;;;11.40;;
55993;SDS011;67425;52.126;20.638;2023-07-29T05:51:38;17.77;;;10.82;;
55993;SDS011;67425;52.126;20.638;2023-07-29T05:54:03;14.52;;;10.52;;
55993;SDS011;67425;52.126;20.638;2023-07-29T05:56:29;16.67;;;10.25;;
55993;SDS011;67425;52.126;20.638;2023-07-29T05:58:56;15.35;;;10.27;;
55993;SDS011;67425;52.126;20.638;2023-07-29T06:01:22;17.33;;;10.68;;
55993;SDS011;67425;52.126;20.638;2023-07-29T06:03:47;12.68;;;9.80;;
55993;SDS011;67425;52.126;20.638;2023-07-29T06:06:12;15.27;;;10.48;;
55993;SDS011;67425;52.126;20.638;2023-07-29T06:08:38;15.90;;;10.05;;
55993;SDS011;67425;52.126;20.638;2023-07-29T06:11:03;16.52;;;10.82;;
55993;SDS011;67425;52.126;20.638;2023-07-29T06:13:31;15.10;;;10.43;;
55993;SDS011;67425;52.126;20.638;2023-07-29T06:15:57;12.98;;;9.18;;
55993;SDS011;67425;52.126;20.638;2023-07-29T06:18:22;17.88;;;10.57;;
55993;SDS011;67425;52.126;20.638;2023-07-29T06:20:47;16.58;;;10.10;;
55993;SDS011;67425;52.126;20.638;2023-07-29T06:23:13;14.02;;;10.40;;
55993;SDS011;67425;52.126;20.638;2023-07-29T06:25:38;20.70;;;10.68;;
55993;SDS011;67425;52.126;20.638;2023-07-29T06:28:03;13.02;;;10.00;;
55993;SDS011;67425;52.126;20.638;2023-07-29T06:30:29;18.25;;;10.02;;
55993;SDS011;67425;52.126;20.638;2023-07-29T06:32:55;13.68;;;9.70;;
55993;SDS011;67425;52.126;20.638;2023-07-29T06:35:20;13.70;;;10.02;;
55993;SDS011;67425;52.126;20.638;2023-07-29T06:37:46;12.60;;;8.73;;
55993;SDS011;67425;52.126;20.638;2023-07-29T06:40:11;12.57;;;9.10;;
55993;SDS011;67425;52.126;20.638;2023-07-29T06:42:37;12.05;;;9.30;;
55993;SDS011;67425;52.126;20.638;2023-07-29T06:45:03;10.38;;;8.02;;
55993;SDS011;67425;52.126;20.638;2023-07-29T06:47:29;11.93;;;6.95;;
55993;SDS011;67425;52.126;20.638;2023-07-29T06:49:55;8.93;;;7.32;;
55993;SDS011;67425;52.126;20.638;2023-07-29T06:52:20;12.52;;;6.35;;
55993;SDS011;67425;52.126;20.638;2023-07-29T06:54:45;7.40;;;6.38;;
55993;SDS011;67425;52.126;20.638;2023-07-29T06:57:11;7.43;;;5.40;;
55993;SDS011;67425;52.126;20.638;2023-07-29T06:59:36;7.32;;;6.38;;
55993;SDS011;67425;52.126;20.638;2023-07-29T07:02:02;7.40;;;6.07;;
55993;SDS011;67425;52.126;20.638;2023-07-29T07:04:27;6.55;;;5.95;;
55993;SDS011;67425;52.126;20.638;2023-07-29T07:06:53;7.03;;;5.50;;
55993;SDS011;67425;52.126;20.638;2023-07-29T07:09:19;6.18;;;5.57;;
55993;SDS011;67425;52.126;20.638;2023-07-29T07:11:44;9.77;;;5.28;;
55993;SDS011;67425;52.126;20.638;2023-07-29T07:14:09;6.97;;;5.03;;
55993;SDS011;67425;52.126;20.638;2023-07-29T07:16:35;5.28;;;4.50;;
55993;SDS011;67425;52.126;20.638;2023-07-29T07:19:02;5.03;;;4.45;;
55993;SDS011;67425;52.126;20.638;2023-07-29T07:21:27;6.55;;;4.80;;
55993;SDS011;67425;52.126;20.638;2023-07-29T07:23:53;4.90;;;4.45;;
55993;SDS011;67425;52.126;20.638;2023-07-29T07:26:18;5.07;;;4.20;;
55993;SDS011;67425;52.126;20.638;2023-07-29T07:28:43;5.75;;;4.47;;
55993;SDS011;67425;52.126;20.638;2023-07-29T07:31:09;4.45;;;3.38;;
55993;SDS011;67425;52.126;20.638;2023-07-29T07:33:34;5.95;;;4.40;;
55993;SDS011;67425;52.126;20.638;2023-07-29T07:35:59;4.63;;;4.22;;
55993;SDS011;67425;52.126;20.638;2023-07-29T07:38:25;4.20;;;3.75;;
55993;SDS011;67425;52.126;20.638;2023-07-29T07:40:53;8.75;;;3.60;;
55993;SDS011;67425;52.126;20.638;2023-07-29T07:43:20;3.92;;;3.63;;
55993;SDS011;67425;52.126;20.638;2023-07-29T07:45:45;7.50;;;4.38;;
55993;SDS011;67425;52.126;20.638;2023-07-29T07:48:10;6.82;;;4.45;;
55993;SDS011;67425;52.126;20.638;2023-07-29T07:50:38;3.70;;;3.50;;
55993;SDS011;67425;52.126;20.638;2023-07-29T07:53:03;3.55;;;3.35;;
55993;SDS011;67425;52.126;20.638;2023-07-29T07:55:29;3.25;;;2.95;;
55993;SDS011;67425;52.126;20.638;2023-07-29T07:57:54;3.38;;;3.08;;
55993;SDS011;67425;52.126;20.638;2023-07-29T08:00:20;6.70;;;2.95;;
55993;SDS011;67425;52.126;20.638;2023-07-29T08:02:45;3.40;;;3.13;;
55993;SDS011;67425;52.126;20.638;2023-07-29T08:05:11;3.25;;;2.95;;
55993;SDS011;67425;52.126;20.638;2023-07-29T08:07:36;3.53;;;3.33;;
55993;SDS011;67425;52.126;20.638;2023-07-29T08:10:01;7.43;;;3.08;;
55993;SDS011;67425;52.126;20.638;2023-07-29T08:12:27;2.53;;;2.42;;
55993;SDS011;67425;52.126;20.638;2023-07-29T08:14:52;2.42;;;2.33;;
55993;SDS011;67425;52.126;20.638;2023-07-29T08:17:17;4.03;;;2.42;;
55993;SDS011;67425;52.126;20.638;2023-07-29T08:19:43;6.57;;;2.40;;
55993;SDS011;67425;52.126;20.638;2023-07-29T08:22:09;3.83;;;2.20;;
55993;SDS011;67425;52.126;20.638;2023-07-29T08:24:34;2.45;;;2.35;;
55993;SDS011;67425;52.126;20.638;2023-07-29T08:27:00;2.25;;;2.15;;
55993;SDS011;67425;52.126;20.638;2023-07-29T08:29:25;2.30;;;2.05;;
55993;SDS011;67425;52.126;20.638;2023-07-29T08:31:50;26.38;;;8.93;;
55993;SDS011;67425;52.126;20.638;2023-07-29T08:34:16;4.43;;;3.53;;
55993;SDS011;67425;52.126;20.638;2023-07-29T08:36:42;2.28;;;2.17;;
55993;SDS011;67425;52.126;20.638;2023-07-29T08:39:07;5.35;;;2.30;;
55993;SDS011;67425;52.126;20.638;2023-07-29T08:41:37;2.40;;;2.30;;
55993;SDS011;67425;52.126;20.638;2023-07-29T08:44:26;2.50;;;2.40;;
55993;SDS011;67425;52.126;20.638;2023-07-29T08:46:54;6.20;;;2.30;;
55993;SDS011;67425;52.126;20.638;2023-07-29T08:49:22;3.25;;;2.45;;
55993;SDS011;67425;52.126;20.638;2023-07-29T08:51:48;7.40;;;1.88;;
55993;SDS011;67425;52.126;20.638;2023-07-29T08:54:14;1.90;;;1.80;;
55993;SDS011;67425;52.126;20.638;2023-07-29T08:56:41;3.50;;;1.60;;
55993;SDS011;67425;52.126;20.638;2023-07-29T08:59:07;1.63;;;1.52;;
55993;SDS011;67425;52.126;20.638;2023-07-29T09:01:33;2.00;;;1.80;;
55993;SDS011;67425;52.126;20.638;2023-07-29T09:03:59;1.92;;;1.60;;
55993;SDS011;67425;52.126;20.638;2023-07-29T09:06:25;4.95;;;1.90;;
55993;SDS011;67425;52.126;20.638;2023-07-29T09:08:52;2.00;;;1.77;;
55993;SDS011;67425;52.126;20.638;2023-07-29T09:11:19;2.00;;;1.85;;
55993;SDS011;67425;52.126;20.638;2023-07-29T09:13:45;2.05;;;1.95;;
55993;SDS011;67425;52.126;20.638;2023-07-29T09:16:11;2.22;;;1.70;;
55993;SDS011;67425;52.126;20.638;2023-07-29T09:18:37;1.70;;;1.60;;
55993;SDS011;67425;52.126;20.638;2023-07-29T09:21:02;1.50;;;1.40;;
55993;SDS011;67425;52.126;20.638;2023-07-29T09:23:28;1.70;;;1.60;;
55993;SDS011;67425;52.126;20.638;2023-07-29T09:26:00;1.98;;;1.63;;
55993;SDS011;67425;52.126;20.638;2023-07-29T09:28:32;4.60;;;1.35;;
55993;SDS011;67425;52.126;20.638;2023-07-29T09:31:00;1.67;;;1.58;;
55993;SDS011;67425;52.126;20.638;2023-07-29T09:33:25;1.42;;;1.33;;
55993;SDS011;67425;52.126;20.638;2023-07-29T09:35:51;2.08;;;1.50;;
55993;SDS011;67425;52.126;20.638;2023-07-29T09:38:17;1.48;;;1.48;;
55993;SDS011;67425;52.126;20.638;2023-07-29T09:40:42;4.47;;;1.77;;
55993;SDS011;67425;52.126;20.638;2023-07-29T09:43:10;3.72;;;1.50;;
55993;SDS011;67425;52.126;20.638;2023-07-29T09:45:36;2.40;;;1.40;;
55993;SDS011;67425;52.126;20.638;2023-07-29T09:48:02;1.52;;;1.52;;
55993;SDS011;67425;52.126;20.638;2023-07-29T09:50:29;5.28;;;1.65;;
55993;SDS011;67425;52.126;20.638;2023-07-29T09:52:56;4.18;;;1.90;;
55993;SDS011;67425;52.126;20.638;2023-07-29T09:55:25;2.85;;;1.90;;
55993;SDS011;67425;52.126;20.638;2023-07-29T09:57:58;2.92;;;2.72;;
55993;SDS011;67425;52.126;20.638;2023-07-29T10:00:33;2.10;;;2.00;;
55993;SDS011;67425;52.126;20.638;2023-07-29T10:02:59;8.25;;;1.80;;
55993;SDS011;67425;52.126;20.638;2023-07-29T10:05:27;1.63;;;1.52;;
55993;SDS011;67425;52.126;20.638;2023-07-29T10:07:54;2.47;;;2.28;;
55993;SDS011;67425;52.126;20.638;2023-07-29T10:10:21;1.95;;;1.80;;
55993;SDS011;67425;52.126;20.638;2023-07-29T10:12:46;1.65;;;1.58;;
55993;SDS011;67425;52.126;20.638;2023-07-29T10:15:12;2.97;;;1.67;;
55993;SDS011;67425;52.126;20.638;2023-07-29T10:17:38;2.13;;;1.95;;
55993;SDS011;67425;52.126;20.638;2023-07-29T10:20:05;2.30;;;1.98;;
55993;SDS011;67425;52.126;20.638;2023-07-29T10:22:42;2.22;;;1.70;;
55993;SDS011;67425;52.126;20.638;2023-07-29T10:27:41;3.20;;;2.90;;
55993;SDS011;67425;52.126;20.638;2023-07-29T10:30:09;2.45;;;2.03;;
55993;SDS011;67425;52.126;20.638;2023-07-29T10:32:36;3.63;;;3.30;;
55993;SDS011;67425;52.126;20.638;2023-07-29T10:35:03;2.58;;;2.40;;
55993;SDS011;67425;52.126;20.638;2023-07-29T10:37:28;3.17;;;2.85;;
55993;SDS011;67425;52.126;20.638;2023-07-29T10:39:55;3.90;;;2.30;;
55993;SDS011;67425;52.126;20.638;2023-07-29T10:42:21;3.35;;;2.50;;
55993;SDS011;67425;52.126;20.638;2023-07-29T10:47:23;4.35;;;2.75;;
55993;SDS011;67425;52.126;20.638;2023-07-29T10:49:56;2.13;;;1.98;;
55993;SDS011;67425;52.126;20.638;2023-07-29T10:52:39;1.75;;;1.65;;
55993;SDS011;67425;52.126;20.638;2023-07-29T10:57:51;21.73;;;12.93;;
55993;SDS011;67425;52.126;20.638;2023-07-29T11:00:18;7.68;;;2.88;;
55993;SDS011;67425;52.126;20.638;2023-07-29T11:02:46;2.13;;;1.90;;
55993;SDS011;67425;52.126;20.638;2023-07-29T11:05:21;3.90;;;1.92;;
55993;SDS011;67425;52.126;20.638;2023-07-29T11:07:47;2.38;;;1.92;;
55993;SDS011;67425;52.126;20.638;2023-07-29T11:10:13;1.77;;;1.63;;
55993;SDS011;67425;52.126;20.638;2023-07-29T11:12:49;1.58;;;1.48;;
55993;SDS011;67425;52.126;20.638;2023-07-29T11:15:17;1.75;;;1.65;;
55993;SDS011;67425;52.126;20.638;2023-07-29T11:20:11;2.08;;;1.98;;
55993;SDS011;67425;52.126;20.638;2023-07-29T11:22:38;1.80;;;1.70;;
55993;SDS011;67425;52.126;20.638;2023-07-29T11:25:04;3.47;;;2.00;;
55993;SDS011;67425;52.126;20.638;2023-07-29T11:27:31;2.33;;;1.88;;
55993;SDS011;67425;52.126;20.638;2023-07-29T11:29:58;4.72;;;1.65;;
55993;SDS011;67425;52.126;20.638;2023-07-29T11:32:27;3.10;;;2.90;;
55993;SDS011;67425;52.126;20.638;2023-07-29T11:34:53;2.20;;;2.00;;
55993;SDS011;67425;52.126;20.638;2023-07-29T11:37:18;1.60;;;1.50;;
55993;SDS011;67425;52.126;20.638;2023-07-29T11:39:46;2.85;;;1.67;;
55993;SDS011;67425;52.126;20.638;2023-07-29T11:42:12;2.25;;;1.75;;
55993;SDS011;67425;52.126;20.638;2023-07-29T11:44:38;1.63;;;1.45;;
55993;SDS011;67425;52.126;20.638;2023-07-29T11:47:10;1.80;;;1.70;;
55993;SDS011;67425;52.126;20.638;2023-07-29T11:49:38;1.77;;;1.67;;
55993;SDS011;67425;52.126;20.638;2023-07-29T11:52:06;4.70;;;1.58;;
55993;SDS011;67425;52.126;20.638;2023-07-29T11:54:33;7.10;;;2.08;;
55993;SDS011;67425;52.126;20.638;2023-07-29T11:56:59;2.92;;;1.70;;
55993;SDS011;67425;52.126;20.638;2023-07-29T11:59:25;2.45;;;1.48;;
55993;SDS011;67425;52.126;20.638;2023-07-29T12:01:52;1.90;;;1.80;;
55993;SDS011;67425;52.126;20.638;2023-07-29T12:04:18;2.05;;;1.73;;
55993;SDS011;67425;52.126;20.638;2023-07-29T12:06:43;2.58;;;1.70;;
55993;SDS011;67425;52.126;20.638;2023-07-29T12:09:09;3.72;;;1.73;;
55993;SDS011;67425;52.126;20.638;2023-07-29T12:11:35;3.15;;;1.80;;
55993;SDS011;67425;52.126;20.638;2023-07-29T12:14:00;3.90;;;1.67;;
55993;SDS011;67425;52.126;20.638;2023-07-29T12:16:26;4.07;;;1.40;;
55993;SDS011;67425;52.126;20.638;2023-07-29T12:18:51;2.40;;;1.60;;
55993;SDS011;67425;52.126;20.638;2023-07-29T12:21:17;1.67;;;1.58;;
55993;SDS011;67425;52.126;20.638;2023-07-29T12:23:44;4.45;;;1.55;;
55993;SDS011;67425;52.126;20.638;2023-07-29T12:26:09;1.50;;;1.40;;
55993;SDS011;67425;52.126;20.638;2023-07-29T12:28:34;2.00;;;1.90;;
55993;SDS011;67425;52.126;20.638;2023-07-29T12:31:00;1.90;;;1.80;;
55993;SDS011;67425;52.126;20.638;2023-07-29T12:33:35;1.92;;;1.60;;
55993;SDS011;67425;52.126;20.638;2023-07-29T12:36:02;5.93;;;1.50;;
55993;SDS011;67425;52.126;20.638;2023-07-29T12:38:28;2.25;;;1.38;;
55993;SDS011;67425;52.126;20.638;2023-07-29T12:40:54;2.95;;;1.95;;
55993;SDS011;67425;52.126;20.638;2023-07-29T12:43:20;2.92;;;1.63;;
55993;SDS011;67425;52.126;20.638;2023-07-29T12:45:45;1.50;;;1.40;;
55993;SDS011;67425;52.126;20.638;2023-07-29T12:48:11;1.60;;;1.50;;
55993;SDS011;67425;52.126;20.638;2023-07-29T12:50:37;1.92;;;1.30;;
55993;SDS011;67425;52.126;20.638;2023-07-29T12:53:07;2.28;;;1.70;;
55993;SDS011;67425;52.126;20.638;2023-07-29T12:55:35;1.70;;;1.60;;
55993;SDS011;67425;52.126;20.638;2023-07-29T12:58:00;1.40;;;1.30;;
55993;SDS011;67425;52.126;20.638;2023-07-29T13:00:26;5.30;;;1.70;;
55993;SDS011;67425;52.126;20.638;2023-07-29T13:02:51;5.30;;;1.20;;
55993;SDS011;67425;52.126;20.638;2023-07-29T13:05:17;10.33;;;1.40;;
55993;SDS011;67425;52.126;20.638;2023-07-29T13:07:42;1.70;;;1.60;;
55993;SDS011;67425;52.126;20.638;2023-07-29T13:10:08;1.67;;;1.58;;
55993;SDS011;67425;52.126;20.638;2023-07-29T13:12:37;6.00;;;1.60;;
55993;SDS011;67425;52.126;20.638;2023-07-29T13:15:03;1.40;;;1.23;;
55993;SDS011;67425;52.126;20.638;2023-07-29T13:17:29;1.67;;;1.58;;
55993;SDS011;67425;52.126;20.638;2023-07-29T13:19:54;1.50;;;1.40;;
55993;SDS011;67425;52.126;20.638;2023-07-29T13:22:19;1.83;;;1.73;;
55993;SDS011;67425;52.126;20.638;2023-07-29T13:24:45;1.75;;;1.65;;
55993;SDS011;67425;52.126;20.638;2023-07-29T13:27:10;1.90;;;1.50;;
55993;SDS011;67425;52.126;20.638;2023-07-29T13:29:36;10.70;;;2.00;;
55993;SDS011;67425;52.126;20.638;2023-07-29T13:32:01;2.80;;;1.42;;
55993;SDS011;67425;52.126;20.638;2023-07-29T13:34:26;1.57;;;1.47;;
55993;SDS011;67425;52.126;20.638;2023-07-29T13:36:52;1.75;;;1.65;;
55993;SDS011;67425;52.126;20.638;2023-07-29T13:39:18;9.23;;;1.90;;
55993;SDS011;67425;52.126;20.638;2023-07-29T13:41:43;2.47;;;1.93;;
55993;SDS011;67425;52.126;20.638;2023-07-29T13:44:08;6.60;;;1.60;;
55993;SDS011;67425;52.126;20.638;2023-07-29T13:46:33;2.40;;;1.73;;
55993;SDS011;67425;52.126;20.638;2023-07-29T13:48:59;2.20;;;1.50;;
55993;SDS011;67425;52.126;20.638;2023-07-29T13:51:24;5.20;;;2.10;;
55993;SDS011;67425;52.126;20.638;2023-07-29T13:53:49;8.47;;;3.27;;
55993;SDS011;67425;52.126;20.638;2023-07-29T13:56:15;1.65;;;1.20;;
55993;SDS011;67425;52.126;20.638;2023-07-29T13:58:40;1.17;;;1.17;;
55993;SDS011;67425;52.126;20.638;2023-07-29T14:01:05;3.28;;;1.70;;
55993;SDS011;67425;52.126;20.638;2023-07-29T14:03:31;6.22;;;2.47;;
55993;SDS011;67425;52.126;20.638;2023-07-29T14:05:56;1.48;;;1.38;;
55993;SDS011;67425;52.126;20.638;2023-07-29T14:08:22;1.35;;;1.25;;
55993;SDS011;67425;52.126;20.638;2023-07-29T14:10:48;30.02;;;3.80;;
55993;SDS011;67425;52.126;20.638;2023-07-29T14:13:14;2.10;;;1.90;;
55993;SDS011;67425;52.126;20.638;2023-07-29T14:15:39;1.57;;;1.33;;
55993;SDS011;67425;52.126;20.638;2023-07-29T14:18:05;2.45;;;2.17;;
55993;SDS011;67425;52.126;20.638;2023-07-29T14:20:31;6.95;;;1.20;;
55993;SDS011;67425;52.126;20.638;2023-07-29T14:22:57;2.75;;;2.50;;
55993;SDS011;67425;52.126;20.638;2023-07-29T14:25:23;1.73;;;1.63;;
55993;SDS011;67425;52.126;20.638;2023-07-29T14:27:48;1.42;;;1.38;;
55993;SDS011;67425;52.126;20.638;2023-07-29T14:30:14;1.60;;;1.50;;
55993;SDS011;67425;52.126;20.638;2023-07-29T14:32:39;3.22;;;1.55;;
55993;SDS011;67425;52.126;20.638;2023-07-29T14:35:04;1.60;;;1.50;;
55993;SDS011;67425;52.126;20.638;2023-07-29T14:37:30;3.10;;;1.50;;
55993;SDS011;67425;52.126;20.638;2023-07-29T14:39:57;2.90;;;1.40;;